sensor_id;sensor_type;location;lat;lon;timestamp;pressure;altitude;pressure_sealevel;temperature;humidity
25650;BME280;13505;45.196;5.696;2023-08-17T04:32:03;99173.41;;;24.33;55.98
25650;BME280;13505;45.196;5.696;2023-08-17T04:36:53;99186.69;;;24.35;55.96
25650;BME280;13505;45.196;5.696;2023-08-17T04:41:43;99191.94;;;24.36;56.41
25650;BME280;13505;45.196;5.696;2023-08-17T04:46:35;99192.56;;;24.30;56.36
25650;BME280;13505;45.196;5.696;2023-08-17T04:51:25;99208.31;;;24.17;56.94
25650;BME280;13505;45.196;5.696;2023-08-17T04:56:16;99220.09;;;24.16;56.91
25650;BME280;13505;45.196;5.696;2023-08-17T05:01:06;99232.31;;;24.28;56.29
25650;BME280;13505;45.196;5.696;2023-08-17T05:05:56;99245.09;;;24.26;56.46
25650;BME280;13505;45.196;5.696;2023-08-17T05:10:47;99284.38;;;24.29;57.22
25650;BME280;13505;45.196;5.696;2023-08-17T05:15:37;99296.75;;;24.21;56.39
25650;BME280;13505;45.196;5.696;2023-08-17T05:20:27;99295.91;;;24.21;57.24
25650;BME280;13505;45.196;5.696;2023-08-17T05:25:17;99287.31;;;24.17;57.24
25650;BME280;13505;45.196;5.696;2023-08-17T05:30:08;99282.22;;;24.14;58.00
25650;BME280;13505;45.196;5.696;2023-08-17T05:34:58;99257.13;;;24.14;57.29
25650;BME280;13505;45.196;5.696;2023-08-17T05:39:49;99286.56;;;24.07;59.38
25650;BME280;13505;45.196;5.696;2023-08-17T05:44:40;99276.78;;;24.06;59.32
25650;BME280;13505;45.196;5.696;2023-08-17T05:49:30;99283.59;;;23.64;60.92
25650;BME280;13505;45.196;5.696;2023-08-17T05:54:21;99254.38;;;23.23;61.45
25650;BME280;13505;45.196;5.696;2023-08-17T05:59:11;99291.25;;;23.40;59.75
25650;BME280;13505;45.196;5.696;2023-08-17T06:04:02;99303.13;;;23.66;59.71
25650;BME280;13505;45.196;5.696;2023-08-17T06:08:52;99293.53;;;23.63;60.76
25650;BME280;13505;45.196;5.696;2023-08-17T06:13:43;99285.38;;;23.73;60.99
25650;BME280;13505;45.196;5.696;2023-08-17T06:18:33;99275.13;;;23.59;61.86
25650;BME280;13505;45.196;5.696;2023-08-17T06:23:24;99276.94;;;24.04;60.16
25650;BME280;13505;45.196;5.696;2023-08-17T06:28:15;99272.53;;;23.85;60.43
25650;BME280;13505;45.196;5.696;2023-08-17T06:33:05;99274.81;;;23.80;60.88
25650;BME280;13505;45.196;5.696;2023-08-17T06:37:55;99280.34;;;23.78;61.10
25650;BME280;13505;45.196;5.696;2023-08-17T06:42:47;99275.06;;;23.68;61.39
25650;BME280;13505;45.196;5.696;2023-08-17T06:47:38;99282.13;;;23.88;62.83
25650;BME280;13505;45.196;5.696;2023-08-17T06:52:28;99272.88;;;24.53;59.81
25650;BME280;13505;45.196;5.696;2023-08-17T06:57:19;99274.75;;;24.52;57.56
25650;BME280;13505;45.196;5.696;2023-08-17T07:02:11;99275.22;;;24.48;55.43
25650;BME280;13505;45.196;5.696;2023-08-17T07:07:02;99270.91;;;24.55;54.57
25650;BME280;13505;45.196;5.696;2023-08-17T07:11:52;99270.25;;;24.61;54.14
25650;BME280;13505;45.196;5.696;2023-08-17T07:16:42;99268.75;;;24.67;53.56
25650;BME280;13505;45.196;5.696;2023-08-17T07:21:33;99263.31;;;24.06;55.71
25650;BME280;13505;45.196;5.696;2023-08-17T07:26:23;99245.59;;;23.85;55.83
25650;BME280;13505;45.196;5.696;2023-08-17T07:31:13;99245.16;;;24.95;52.58
25650;BME280;13505;45.196;5.696;2023-08-17T07:36:04;99243.84;;;25.59;49.97
25650;BME280;13505;45.196;5.696;2023-08-17T07:40:55;99238.97;;;26.13;48.42
25650;BME280;13505;45.196;5.696;2023-08-17T07:45:45;99243.03;;;25.75;46.33
25650;BME280;13505;45.196;5.696;2023-08-17T07:50:35;99228.53;;;25.93;45.53
25650;BME280;13505;45.196;5.696;2023-08-17T07:55:26;99213.59;;;27.03;43.58
25650;BME280;13505;45.196;5.696;2023-08-17T08:00:17;99213.75;;;27.34;43.24
25650;BME280;13505;45.196;5.696;2023-08-17T08:05:07;99210.72;;;27.37;42.45
25650;BME280;13505;45.196;5.696;2023-08-17T08:09:58;99211.41;;;27.30;42.29
25650;BME280;13505;45.196;5.696;2023-08-17T08:14:48;99205.34;;;27.98;40.61
25650;BME280;13505;45.196;5.696;2023-08-17T08:19:39;99217.50;;;28.03;39.23
25650;BME280;13505;45.196;5.696;2023-08-17T08:24:29;99213.28;;;28.53;38.53
25650;BME280;13505;45.196;5.696;2023-08-17T08:29:23;99219.66;;;27.69;40.27
25650;BME280;13505;45.196;5.696;2023-08-17T08:34:14;99210.78;;;28.37;39.49
25650;BME280;13505;45.196;5.696;2023-08-17T08:39:04;99198.91;;;28.68;39.32
25650;BME280;13505;45.196;5.696;2023-08-17T08:43:54;99206.97;;;28.08;41.88
25650;BME280;13505;45.196;5.696;2023-08-17T08:48:48;99215.09;;;28.08;42.08
25650;BME280;13505;45.196;5.696;2023-08-17T08:53:44;99195.63;;;28.27;42.12
25650;BME280;13505;45.196;5.696;2023-08-17T08:58:36;99190.00;;;28.44;41.94
25650;BME280;13505;45.196;5.696;2023-08-17T09:03:27;99178.63;;;29.37;39.98
25650;BME280;13505;45.196;5.696;2023-08-17T09:08:27;99176.22;;;29.93;38.39
25650;BME280;13505;45.196;5.696;2023-08-17T09:13:19;99168.38;;;30.33;37.36
25650;BME280;13505;45.196;5.696;2023-08-17T09:18:09;99160.22;;;30.75;38.61
25650;BME280;13505;45.196;5.696;2023-08-17T09:23:03;99164.00;;;29.38;40.92
25650;BME280;13505;45.196;5.696;2023-08-17T09:27:54;99147.56;;;30.19;40.45
25650;BME280;13505;45.196;5.696;2023-08-17T09:32:47;99153.22;;;30.17;37.91
25650;BME280;13505;45.196;5.696;2023-08-17T09:37:37;99154.69;;;30.20;38.37
25650;BME280;13505;45.196;5.696;2023-08-17T09:42:28;99142.06;;;30.89;37.02
25650;BME280;13505;45.196;5.696;2023-08-17T09:47:19;99136.13;;;30.66;37.54
25650;BME280;13505;45.196;5.696;2023-08-17T09:52:11;99130.00;;;30.63;36.92
25650;BME280;13505;45.196;5.696;2023-08-17T09:57:01;99135.16;;;30.94;36.63
25650;BME280;13505;45.196;5.696;2023-08-17T10:01:52;99126.94;;;31.83;35.36
25650;BME280;13505;45.196;5.696;2023-08-17T10:06:42;99113.47;;;32.01;34.31
25650;BME280;13505;45.196;5.696;2023-08-17T10:11:34;99107.63;;;31.78;33.95
25650;BME280;13505;45.196;5.696;2023-08-17T10:16:45;99093.66;;;32.85;32.67
25650;BME280;13505;45.196;5.696;2023-08-17T10:21:50;99088.91;;;32.15;33.82
25650;BME280;13505;45.196;5.696;2023-08-17T10:26:44;99086.31;;;32.34;32.89
25650;BME280;13505;45.196;5.696;2023-08-17T10:31:35;99073.59;;;32.21;32.81
25650;BME280;13505;45.196;5.696;2023-08-17T10:36:26;99060.03;;;32.53;33.06
25650;BME280;13505;45.196;5.696;2023-08-17T10:41:16;99057.66;;;32.70;32.17
25650;BME280;13505;45.196;5.696;2023-08-17T10:46:16;99041.44;;;33.14;31.43
25650;BME280;13505;45.196;5.696;2023-08-17T10:51:08;99039.41;;;32.11;32.34
25650;BME280;13505;45.196;5.696;2023-08-17T10:56:06;99038.19;;;33.24;30.42
25650;BME280;13505;45.196;5.696;2023-08-17T11:00:58;99016.38;;;33.68;29.37
25650;BME280;13505;45.196;5.696;2023-08-17T11:05:53;99015.06;;;33.45;28.70
25650;BME280;13505;45.196;5.696;2023-08-17T11:10:57;99002.19;;;34.15;27.79
25650;BME280;13505;45.196;5.696;2023-08-17T11:15:48;99008.06;;;34.00;27.79
25650;BME280;13505;45.196;5.696;2023-08-17T11:20:41;98993.38;;;34.44;29.36
25650;BME280;13505;45.196;5.696;2023-08-17T11:25:32;98997.63;;;34.09;28.01
25650;BME280;13505;45.196;5.696;2023-08-17T11:30:24;98991.47;;;34.14;29.00
25650;BME280;13505;45.196;5.696;2023-08-17T11:35:15;98983.13;;;35.24;27.67
25650;BME280;13505;45.196;5.696;2023-08-17T11:40:06;98981.16;;;36.37;25.95
25650;BME280;13505;45.196;5.696;2023-08-17T11:44:56;98971.72;;;36.45;25.13
25650;BME280;13505;45.196;5.696;2023-08-17T11:49:50;98976.19;;;36.51;24.30
25650;BME280;13505;45.196;5.696;2023-08-17T11:54:40;98967.38;;;36.20;25.00
25650;BME280;13505;45.196;5.696;2023-08-17T11:59:31;98962.34;;;36.75;24.14
25650;BME280;13505;45.196;5.696;2023-08-17T12:04:23;98957.47;;;37.68;23.56
25650;BME280;13505;45.196;5.696;2023-08-17T12:09:14;98954.47;;;37.92;21.72
25650;BME280;13505;45.196;5.696;2023-08-17T12:14:09;98946.88;;;37.20;22.69
25650;BME280;13505;45.196;5.696;2023-08-17T12:19:00;98944.91;;;37.15;23.94
25650;BME280;13505;45.196;5.696;2023-08-17T12:23:51;98942.41;;;36.97;24.13
25650;BME280;13505;45.196;5.696;2023-08-17T12:28:41;98923.00;;;37.21;24.52
25650;BME280;13505;45.196;5.696;2023-08-17T12:33:32;98921.84;;;37.78;23.14
25650;BME280;13505;45.196;5.696;2023-08-17T12:38:24;98912.56;;;38.34;21.98
25650;BME280;13505;45.196;5.696;2023-08-17T12:43:14;98919.53;;;38.15;21.40
25650;BME280;13505;45.196;5.696;2023-08-17T12:48:05;98899.75;;;37.95;21.41
25650;BME280;13505;45.196;5.696;2023-08-17T12:52:55;98892.75;;;37.60;21.37
25650;BME280;13505;45.196;5.696;2023-08-17T12:57:46;98890.06;;;37.26;21.28
25650;BME280;13505;45.196;5.696;2023-08-17T13:02:36;98887.13;;;37.10;20.38
25650;BME280;13505;45.196;5.696;2023-08-17T13:07:26;98891.28;;;36.79;21.05
25650;BME280;13505;45.196;5.696;2023-08-17T13:12:17;98872.47;;;36.87;20.38
25650;BME280;13505;45.196;5.696;2023-08-17T13:17:07;98876.94;;;36.94;20.68
25650;BME280;13505;45.196;5.696;2023-08-17T13:21:58;98866.72;;;36.89;20.71
25650;BME280;13505;45.196;5.696;2023-08-17T13:26:48;98865.41;;;36.57;20.78
25650;BME280;13505;45.196;5.696;2023-08-17T13:31:42;98853.41;;;36.98;20.67
25650;BME280;13505;45.196;5.696;2023-08-17T13:36:33;98850.72;;;37.65;20.12
25650;BME280;13505;45.196;5.696;2023-08-17T13:41:23;98847.91;;;38.09;19.39
25650;BME280;13505;45.196;5.696;2023-08-17T13:46:15;98838.66;;;38.21;19.49
25650;BME280;13505;45.196;5.696;2023-08-17T13:51:05;98836.22;;;38.24;19.62
25650;BME280;13505;45.196;5.696;2023-08-17T13:55:56;98833.88;;;38.11;19.87
25650;BME280;13505;45.196;5.696;2023-08-17T14:00:46;98836.19;;;37.97;20.32
25650;BME280;13505;45.196;5.696;2023-08-17T14:05:36;98831.94;;;37.84;20.73
25650;BME280;13505;45.196;5.696;2023-08-17T14:10:26;98816.09;;;37.96;20.57
25650;BME280;13505;45.196;5.696;2023-08-17T14:15:17;98825.84;;;38.04;20.88
25650;BME280;13505;45.196;5.696;2023-08-17T14:20:08;98812.63;;;38.01;20.21
25650;BME280;13505;45.196;5.696;2023-08-17T14:24:58;98813.97;;;38.31;19.85
25650;BME280;13505;45.196;5.696;2023-08-17T14:29:49;98812.41;;;38.13;20.31
25650;BME280;13505;45.196;5.696;2023-08-17T14:34:39;98811.06;;;38.16;20.01
25650;BME280;13505;45.196;5.696;2023-08-17T14:39:30;98794.41;;;38.33;20.35
25650;BME280;13505;45.196;5.696;2023-08-17T14:44:20;98801.50;;;38.51;20.42
25650;BME280;13505;45.196;5.696;2023-08-17T14:49:11;98798.75;;;38.23;20.57
25650;BME280;13505;45.196;5.696;2023-08-17T14:54:01;98791.59;;;37.95;21.70
25650;BME280;13505;45.196;5.696;2023-08-17T14:58:52;98793.69;;;38.10;20.50
25650;BME280;13505;45.196;5.696;2023-08-17T15:03:42;98789.25;;;38.04;20.87
25650;BME280;13505;45.196;5.696;2023-08-17T15:08:32;98774.19;;;37.84;21.97
25650;BME280;13505;45.196;5.696;2023-08-17T15:13:23;98768.28;;;37.75;21.67
25650;BME280;13505;45.196;5.696;2023-08-17T15:18:13;98773.56;;;37.77;22.12
25650;BME280;13505;45.196;5.696;2023-08-17T15:23:03;98768.09;;;37.32;22.26
25650;BME280;13505;45.196;5.696;2023-08-17T15:27:54;98763.50;;;37.38;22.40
25650;BME280;13505;45.196;5.696;2023-08-17T15:32:44;98742.94;;;37.46;21.86
25650;BME280;13505;45.196;5.696;2023-08-17T15:37:34;98764.34;;;37.16;21.85
25650;BME280;13505;45.196;5.696;2023-08-17T15:42:27;98765.63;;;37.08;21.38
25650;BME280;13505;45.196;5.696;2023-08-17T15:47:17;98765.53;;;37.03;21.89
25650;BME280;13505;45.196;5.696;2023-08-17T15:52:08;98761.59;;;37.16;21.47
25650;BME280;13505;45.196;5.696;2023-08-17T15:56:59;98760.53;;;37.00;21.79
25650;BME280;13505;45.196;5.696;2023-08-17T16:01:49;98745.97;;;36.77;21.91
25650;BME280;13505;45.196;5.696;2023-08-17T16:06:39;98744.84;;;36.56;22.97
25650;BME280;13505;45.196;5.696;2023-08-17T16:11:33;98740.34;;;36.67;21.87
25650;BME280;13505;45.196;5.696;2023-08-17T16:16:24;98743.00;;;36.62;21.75
25650;BME280;13505;45.196;5.696;2023-08-17T16:21:14;98743.25;;;36.43;21.64
25650;BME280;13505;45.196;5.696;2023-08-17T16:26:04;98737.94;;;35.56;23.20
25650;BME280;13505;45.196;5.696;2023-08-17T16:30:55;98742.72;;;35.78;22.96
25650;BME280;13505;45.196;5.696;2023-08-17T16:35:45;98736.19;;;35.96;21.98
25650;BME280;13505;45.196;5.696;2023-08-17T16:40:35;98741.75;;;35.84;22.29
25650;BME280;13505;45.196;5.696;2023-08-17T16:45:26;98740.72;;;35.73;22.75
25650;BME280;13505;45.196;5.696;2023-08-17T16:50:16;98747.13;;;35.79;22.88
25650;BME280;13505;45.196;5.696;2023-08-17T16:55:07;98740.78;;;35.61;23.34
25650;BME280;13505;45.196;5.696;2023-08-17T16:59:57;98738.56;;;35.46;23.19
25650;BME280;13505;45.196;5.696;2023-08-17T17:04:47;98733.28;;;35.27;24.05
25650;BME280;13505;45.196;5.696;2023-08-17T17:09:38;98741.50;;;35.15;23.77
25650;BME280;13505;45.196;5.696;2023-08-17T17:14:28;98740.00;;;34.96;24.39
25650;BME280;13505;45.196;5.696;2023-08-17T17:19:18;98751.69;;;34.67;24.93
25650;BME280;13505;45.196;5.696;2023-08-17T17:24:09;98750.97;;;34.36;24.84
25650;BME280;13505;45.196;5.696;2023-08-17T17:28:59;98755.25;;;34.08;25.49
25650;BME280;13505;45.196;5.696;2023-08-17T17:33:51;98760.22;;;33.99;25.39
25650;BME280;13505;45.196;5.696;2023-08-17T17:38:42;98771.69;;;33.89;25.81
25650;BME280;13505;45.196;5.696;2023-08-17T17:43:32;98769.06;;;33.82;25.70
25650;BME280;13505;45.196;5.696;2023-08-17T17:48:22;98768.81;;;33.53;26.20
25650;BME280;13505;45.196;5.696;2023-08-17T17:53:13;98773.41;;;33.22;26.59
25650;BME280;13505;45.196;5.696;2023-08-17T17:58:03;98783.34;;;33.17;26.79
25650;BME280;13505;45.196;5.696;2023-08-17T18:03:08;98785.72;;;32.94;27.25
25650;BME280;13505;45.196;5.696;2023-08-17T18:08:00;98791.09;;;33.01;26.13
25650;BME280;13505;45.196;5.696;2023-08-17T18:12:50;98788.53;;;32.81;27.78
25650;BME280;13505;45.196;5.696;2023-08-17T18:17:42;98802.53;;;32.47;27.93
25650;BME280;13505;45.196;5.696;2023-08-17T18:22:32;98803.31;;;32.22;28.13
25650;BME280;13505;45.196;5.696;2023-08-17T18:27:22;98812.44;;;32.09;28.13
25650;BME280;13505;45.196;5.696;2023-08-17T18:32:13;98811.47;;;32.22;28.06
25650;BME280;13505;45.196;5.696;2023-08-17T18:37:03;98810.94;;;32.13;28.33
25650;BME280;13505;45.196;5.696;2023-08-17T18:41:53;98804.69;;;32.06;28.51
25650;BME280;13505;45.196;5.696;2023-08-17T18:46:44;98816.47;;;32.00;28.38
25650;BME280;13505;45.196;5.696;2023-08-17T18:51:34;98807.28;;;31.94;28.23
25650;BME280;13505;45.196;5.696;2023-08-17T18:56:24;98812.78;;;31.87;28.08
25650;BME280;13505;45.196;5.696;2023-08-17T19:01:15;98822.69;;;31.82;28.03
25650;BME280;13505;45.196;5.696;2023-08-17T19:06:05;98836.78;;;31.65;28.77
25650;BME280;13505;45.196;5.696;2023-08-17T19:10:56;98837.25;;;31.49;28.71
25650;BME280;13505;45.196;5.696;2023-08-17T19:15:46;98850.69;;;31.43;28.30
25650;BME280;13505;45.196;5.696;2023-08-17T19:20:36;98851.97;;;31.34;29.18
25650;BME280;13505;45.196;5.696;2023-08-17T19:25:27;98847.22;;;31.09;30.08
25650;BME280;13505;45.196;5.696;2023-08-17T19:30:17;98856.03;;;30.91;30.17
25650;BME280;13505;45.196;5.696;2023-08-17T19:35:08;98863.56;;;30.62;30.22
25650;BME280;13505;45.196;5.696;2023-08-17T19:39:59;98869.66;;;30.64;30.62
25650;BME280;13505;45.196;5.696;2023-08-17T19:44:49;98875.06;;;30.50;31.02
25650;BME280;13505;45.196;5.696;2023-08-17T19:49:39;98879.22;;;30.46;30.63
25650;BME280;13505;45.196;5.696;2023-08-17T19:54:30;98890.72;;;30.28;31.42
25650;BME280;13505;45.196;5.696;2023-08-17T19:59:20;98889.66;;;30.22;31.11
25650;BME280;13505;45.196;5.696;2023-08-17T20:04:10;98893.41;;;30.08;32.03
25650;BME280;13505;45.196;5.696;2023-08-17T20:09:01;98890.56;;;29.88;31.99
25650;BME280;13505;45.196;5.696;2023-08-17T20:13:51;98897.47;;;29.84;32.16
25650;BME280;13505;45.196;5.696;2023-08-17T20:18:41;98897.44;;;29.77;31.86
25650;BME280;13505;45.196;5.696;2023-08-17T20:23:32;98900.16;;;29.77;31.69
25650;BME280;13505;45.196;5.696;2023-08-17T20:28:23;98908.31;;;29.77;31.49
25650;BME280;13505;45.196;5.696;2023-08-17T20:33:13;98921.22;;;29.68;31.98
25650;BME280;13505;45.196;5.696;2023-08-17T20:38:03;98928.50;;;29.61;31.84
25650;BME280;13505;45.196;5.696;2023-08-17T20:42:54;98938.06;;;29.50;32.14
25650;BME280;13505;45.196;5.696;2023-08-17T20:47:44;98937.47;;;29.26;33.41
25650;BME280;13505;45.196;5.696;2023-08-17T20:52:36;98931.41;;;28.95;33.20
25650;BME280;13505;45.196;5.696;2023-08-17T20:57:27;98936.38;;;29.20;33.50
25650;BME280;13505;45.196;5.696;2023-08-17T21:02:17;98953.88;;;28.89;34.37
25650;BME280;13505;45.196;5.696;2023-08-17T21:07:08;98959.28;;;28.46;34.38
25650;BME280;13505;45.196;5.696;2023-08-17T21:11:58;98952.00;;;28.68;34.71
25650;BME280;13505;45.196;5.696;2023-08-17T21:16:51;98963.16;;;28.58;35.11
25650;BME280;13505;45.196;5.696;2023-08-17T21:21:42;98966.56;;;28.45;35.65
25650;BME280;13505;45.196;5.696;2023-08-17T21:26:32;98964.13;;;28.28;35.74
25650;BME280;13505;45.196;5.696;2023-08-17T21:31:24;98979.91;;;28.10;36.52
25650;BME280;13505;45.196;5.696;2023-08-17T21:36:14;98975.00;;;27.98;37.18
25650;BME280;13505;45.196;5.696;2023-08-17T21:41:04;98981.63;;;27.81;37.58
25650;BME280;13505;45.196;5.696;2023-08-17T21:45:56;98982.19;;;27.61;37.98
25650;BME280;13505;45.196;5.696;2023-08-17T21:50:46;98984.28;;;27.51;38.08
25650;BME280;13505;45.196;5.696;2023-08-17T21:55:37;98983.06;;;27.38;38.46
